»·PEaware :: EJA550 KEGE-KCOS

EJA550 :: KEGE-KCOS

FLIGHT INFORMATION

Flight Status: Arrived
Operator:
Netjets Aviation
More flights by this operator :: More flights under this callsign
Pilot: Isaac R. (8401)
Aircraft: CESSNA 550 CITATION 2/S2/BRAVO
(C550)
More flights by this aircraft type
Origin: KEGE Eagle Co Regl
United States
Destination: KCOS City Of Colorado Springs Mun
United States
More flights between these airports :: More routes between these airports
Route: +GYPSM6 RLG V328 SKEED
File this flight plan on PilotEdge
Remarks:
Altitude:
(Current/Filed)
17,000ft
Speed:
(Current/Filed)
470kts
Departed: 31-Jan-19 08:03 PM
Arrived: 31-Jan-19 08:33 PM
Distance/Time
Traveled:
114nm/0:30
Distance/Time
To Go:
Arrived

Flight Plot

Page will automatically refresh every two minutes.


Map Options




Map Legend


Flown Route
Filed Route
Departure Airport
Arrival Airport
Navaid (VOR, NDB)
Fix

Horizontal Profiles

Position Reports

Time Latitude Longitude Heading Altitude Ground
Speed
31-Jan-19 19:45 39.640375 -106.904563 259 6518ft 0kts
31-Jan-19 19:46 39.640375 -106.904563 259 6518ft 0kts
31-Jan-19 19:47 39.640375 -106.904563 259 6518ft 0kts
31-Jan-19 19:48 39.640375 -106.904563 259 6518ft 0kts
31-Jan-19 19:49 39.640375 -106.904563 259 6518ft 0kts
31-Jan-19 19:50 39.640375 -106.904563 259 6518ft 0kts
31-Jan-19 19:51 39.640375 -106.904563 259 6518ft 0kts
31-Jan-19 19:52 39.640375 -106.904563 259 6518ft 0kts
31-Jan-19 19:53 39.640375 -106.904563 259 6518ft 0kts
31-Jan-19 19:54 39.640375 -106.904563 259 6518ft 0kts
31-Jan-19 19:55 39.640375 -106.904563 259 6518ft 0kts
31-Jan-19 19:56 39.640375 -106.904563 259 6518ft 0kts
31-Jan-19 19:57 39.640375 -106.904565 259 6518ft 0kts
31-Jan-19 19:58 39.640371 -106.904648 273 6518ft 4kts
31-Jan-19 19:59 39.641791 -106.905072 353 6518ft 0kts
31-Jan-19 20:00 39.643083 -106.902840 80 6518ft 12kts
31-Jan-19 20:01 39.644389 -106.901164 261 6518ft 21kts
31-Jan-19 20:02 39.641032 -106.938390 260 7187ft 146kts
31-Jan-19 20:03 39.614472 -106.984727 255 9142ft 184kts
31-Jan-19 20:04 39.652968 -107.028626 328 11280ft 216kts
31-Jan-19 20:05 39.708848 -107.063663 346 13933ft 218kts
31-Jan-19 20:06 39.732606 -107.006874 114 16026ft 254kts
31-Jan-19 20:07 39.700057 -106.906258 112 16512ft 330kts
31-Jan-19 20:08 39.662392 -106.788635 112 17013ft 362kts
31-Jan-19 20:09 39.627026 -106.678922 112 17004ft 308kts
31-Jan-19 20:10 39.594329 -106.577782 112 17006ft 315kts
31-Jan-19 20:11 39.557470 -106.464159 112 17012ft 368kts
31-Jan-19 20:12 39.517491 -106.341380 112 17007ft 369kts
31-Jan-19 20:13 39.477593 -106.219462 112 17004ft 367kts
31-Jan-19 20:14 39.437800 -106.098025 112 17010ft 365kts
31-Jan-19 20:15 39.398064 -105.977890 112 17002ft 363kts
31-Jan-19 20:16 39.358167 -105.857842 112 16992ft 362kts
31-Jan-19 20:17 39.318428 -105.738445 112 16986ft 362kts
31-Jan-19 20:18 39.286510 -105.617664 93 16401ft 344kts
31-Jan-19 20:19 39.284052 -105.500710 88 15504ft 311kts
31-Jan-19 20:20 39.283738 -105.393026 87 15097ft 297kts
31-Jan-19 20:21 39.284169 -105.280317 87 14788ft 334kts
31-Jan-19 20:22 39.284703 -105.155259 87 14200ft 356kts
31-Jan-19 20:23 39.267520 -105.042506 121 13418ft 309kts
31-Jan-19 20:24 39.217437 -104.954560 128 12425ft 299kts
31-Jan-19 20:25 39.165317 -104.872426 136 11435ft 293kts
31-Jan-19 20:26 39.101589 -104.813383 153 11043ft 272kts
31-Jan-19 20:27 39.034170 -104.772360 155 11035ft 264kts
31-Jan-19 20:28 38.968981 -104.732027 161 10204ft 230kts
31-Jan-19 20:29 38.915109 -104.719501 175 8364ft 175kts
31-Jan-19 20:30 38.867841 -104.716086 177 7020ft 152kts
31-Jan-19 20:31 38.829050 -104.715934 180 6276ft 133kts
31-Jan-19 20:32 38.811158 -104.716479 260 6187ft 3kts
31-Jan-19 20:33 38.811176 -104.718667 301 6187ft 15kts
31-Jan-19 20:34 38.811843 -104.719663 180 6187ft 0kts
31-Jan-19 20:35 38.811843 -104.719663 180 6187ft 0kts

Navigation Log

Ident Type
Flight plan parsing failed, navigation log unavailable